Rosepine, Louisiana
Current Conditions -  °F | °C
As of 5:35 PM on Monday 20 Oct 2014 (Local Time) from KDRI Reporting Station
Clear Clear  
Wind Chill: 76°   Ceiling: Unl
Heat Index: 76°   Visibility: 10mi
Dew Point: 54°   Wind: 5mph
Humidity: 46%   Direction: 360°N
Pressure: 30.03"   Gusts: NA
Location:  30.92°N, 93.28°W
Report Text: KDRI 202235Z AUTO 36004KT 10SM CLR 24/12 A3003 RMK AO2 T02440120
Loading
Personal Weather Stations






























Interactive Weather Map
Tropical Storm Tracking
New forecast layout! Learn more

10-Day Weather Forecast

Advertisements
Track Severe Weather on mobile